Time;durP1;ratioP1;P1;durP2;ratioP2;P2;SDS_P1;SDS_P2;PMS_P1;PMS_P2;Temp;Humidity;BMP_temperature;BMP_pressure;BME280_temperature;BME280_humidity;BME280_pressure;Samples;Min_cycle;Max_cycle;Signal;HPM_P1;HPM_P2
2021/12/05 01:29:47;;;;;;;17.83;9.70;;;;;;;2.70;100.00;98875.66;7257069;23;20868;31
2021/12/05 01:41:32;;;;;;;17.40;9.13;;;;;;;2.96;100.00;98886.53;6207810;28;20054;-92
2021/12/05 02:09:22;;;;;;;21.10;11.20;;;;;;;2.83;100.00;98883.25;6203336;28;20047;-93
2021/12/05 02:43:35;;;;;;;28.35;14.63;;;;;;;2.64;100.00;98892.25;6137720;29;20110;-93
2021/12/05 02:46:41;;;;;;;28.58;13.80;;;;;;;2.63;100.00;98900.03;6134716;29;20039;-92
2021/12/05 02:49:50;;;;;;;28.45;14.05;;;;;;;2.75;100.00;98891.47;6128174;29;20126;-92
2021/12/05 02:53:06;;;;;;;26.92;14.10;;;;;;;2.69;100.00;98889.38;6126462;29;20062;-92
2021/12/05 02:56:10;;;;;;;22.90;13.73;;;;;;;2.66;100.00;98894.69;6112848;29;20054;-92
2021/12/05 03:02:37;;;;;;;29.80;15.43;;;;;;;2.78;100.00;98914.22;6126441;29;20074;-91
2021/12/05 03:05:43;;;;;;;26.92;14.98;;;;;;;2.76;100.00;98919.47;6108386;29;20059;-91
2021/12/05 03:08:49;;;;;;;25.83;15.15;;;;;;;2.90;100.00;98915.91;6149918;28;20374;-91
2021/12/05 03:11:53;;;;;;;33.95;16.60;;;;;;;2.90;100.00;98915.09;6150863;28;20044;-91
2021/12/05 03:15:02;;;;;;;28.02;15.93;;;;;;;2.98;100.00;98923.00;6117894;29;20051;-91
2021/12/05 03:18:05;;;;;;;27.55;15.85;;;;;;;3.04;100.00;98930.22;6100913;29;20317;-91
2021/12/05 03:21:08;;;;;;;32.17;15.73;;;;;;;2.97;100.00;98929.84;6117958;29;20086;-91
2021/12/05 03:24:13;;;;;;;29.42;16.70;;;;;;;2.92;100.00;98936.25;6117447;29;20105;-91
2021/12/05 03:27:16;;;;;;;26.48;15.18;;;;;;;3.02;100.00;98945.66;6119770;29;20050;-91
2021/12/05 03:30:25;;;;;;;29.30;15.32;;;;;;;3.03;100.00;98946.47;6123563;29;20513;-91
2021/12/05 03:33:27;;;;;;;26.75;14.32;;;;;;;3.04;100.00;98949.88;6120554;29;20056;-91
2021/12/05 03:36:31;;;;;;;28.20;16.08;;;;;;;2.99;100.00;98965.53;6121349;29;20084;-91
2021/12/05 03:39:35;;;;;;;28.42;14.95;;;;;;;2.95;100.00;98969.22;6119988;29;20071;-90
2021/12/05 03:42:45;;;;;;;26.80;14.90;;;;;;;2.92;100.00;98964.34;6124869;29;20046;-91
2021/12/05 03:45:53;;;;;;;26.95;12.93;;;;;;;2.97;100.00;98973.31;6125371;29;20174;-90
2021/12/05 03:49:00;;;;;;;26.10;13.98;;;;;;;2.92;100.00;98979.69;6125405;29;20052;-91
2021/12/05 03:52:10;;;;;;;26.92;13.57;;;;;;;2.92;100.00;98983.06;6151601;28;20525;-91
2021/12/05 03:55:14;;;;;;;24.27;13.23;;;;;;;2.97;100.00;98988.66;6120836;29;20059;-90
2021/12/05 03:58:19;;;;;;;27.17;12.70;;;;;;;3.07;100.00;98993.09;6118882;29;20045;-90
2021/12/05 04:01:25;;;;;;;22.17;11.75;;;;;;;3.08;100.00;98992.16;6122252;29;20075;-90
2021/12/05 04:04:28;;;;;;;23.70;12.85;;;;;;;2.98;100.00;99008.19;6106374;29;20486;-91
2021/12/05 04:07:31;;;;;;;20.90;12.20;;;;;;;2.90;100.00;99000.22;6123132;29;20099;-91
2021/12/05 04:10:38;;;;;;;21.70;11.90;;;;;;;2.83;100.00;98999.03;6119559;29;20043;-91
2021/12/05 04:13:41;;;;;;;18.08;11.48;;;;;;;2.76;100.00;99008.09;6122867;29;20406;-92
2021/12/05 04:16:44;;;;;;;25.23;11.98;;;;;;;2.65;100.00;99008.03;6123042;29;20409;-92
2021/12/05 04:19:48;;;;;;;20.05;11.13;;;;;;;2.58;100.00;99018.69;6153142;28;20059;-92
2021/12/05 04:22:52;;;;;;;18.63;10.23;;;;;;;2.58;100.00;99021.25;6121186;29;20036;-91
2021/12/05 04:25:55;;;;;;;22.17;10.13;;;;;;;2.68;100.00;99020.56;6121454;29;20516;-92
2021/12/05 04:28:57;;;;;;;16.52;8.70;;;;;;;2.69;100.00;99020.47;6152700;28;20048;-91
2021/12/05 04:32:01;;;;;;;20.50;9.23;;;;;;;2.72;100.00;99022.81;6121641;28;20055;-91
2021/12/05 04:35:05;;;;;;;19.02;9.77;;;;;;;2.68;100.00;99026.47;6121213;29;20051;-91
2021/12/05 04:38:08;;;;;;;18.73;8.88;;;;;;;2.70;100.00;99031.50;6121050;29;20051;-91
2021/12/05 04:41:11;;;;;;;17.52;8.20;;;;;;;2.75;100.00;99032.00;6123761;29;20043;-91
2021/12/05 04:44:13;;;;;;;17.88;7.90;;;;;;;2.71;100.00;99031.41;6133263;29;20179;-91
2021/12/05 04:47:15;;;;;;;14.20;7.72;;;;;;;2.73;100.00;99034.66;6122683;29;20063;-91
2021/12/05 04:50:18;;;;;;;11.10;7.78;;;;;;;2.70;100.00;99029.75;6121698;29;20047;-91
2021/12/05 04:53:26;;;;;;;15.43;8.05;;;;;;;2.65;100.00;99036.94;6119247;29;20036;-91
2021/12/05 04:56:29;;;;;;;11.13;7.05;;;;;;;2.57;100.00;99041.75;6119343;29;20070;-91
2021/12/05 04:59:35;;;;;;;10.93;7.28;;;;;;;2.56;100.00;99043.50;6118797;29;20062;-91
2021/12/05 05:02:39;;;;;;;16.23;7.03;;;;;;;2.51;100.00;99042.19;6119568;29;20043;-91
2021/12/05 05:05:48;;;;;;;13.30;7.35;;;;;;;2.46;100.00;99046.78;6122505;28;20126;-91
2021/12/05 05:08:55;;;;;;;15.65;7.90;;;;;;;2.44;100.00;99049.47;6124963;29;20050;-91
2021/12/05 05:11:58;;;;;;;14.98;6.78;;;;;;;2.53;100.00;99053.09;6122364;29;20043;-90
2021/12/05 05:15:00;;;;;;;13.90;6.47;;;;;;;2.73;100.00;99044.88;6122831;28;20050;-90
2021/12/05 05:18:04;;;;;;;15.38;6.97;;;;;;;2.68;100.00;99059.69;6119496;29;20039;-90
2021/12/05 05:41:02;;;;;;;11.48;6.03;;;;;;;2.97;100.00;99072.19;6123590;29;20513;-90
2021/12/05 05:50:28;;;;;;;14.55;5.65;;;;;;;2.75;100.00;99068.56;6119023;29;20051;-90
2021/12/05 05:53:30;;;;;;;13.82;5.75;;;;;;;2.64;100.00;99058.28;6118762;29;20047;-90
2021/12/05 05:56:34;;;;;;;11.48;4.95;;;;;;;2.51;100.00;99066.00;6118232;29;20044;-90
2021/12/05 05:59:47;;;;;;;15.32;5.68;;;;;;;2.36;100.00;99062.75;6112924;29;20040;-90
2021/12/05 06:06:13;;;;;;;8.82;5.05;;;;;;;2.24;100.00;99073.00;6120256;29;20051;-90
2021/12/05 06:09:15;;;;;;;13.25;5.32;;;;;;;2.20;100.00;99074.94;6118162;29;20043;-90
2021/12/05 06:12:17;;;;;;;10.27;4.78;;;;;;;2.14;100.00;99067.69;6120383;29;20039;-90
2021/12/05 06:15:21;;;;;;;13.50;5.25;;;;;;;2.09;100.00;99078.22;6119393;29;20641;-90
2021/12/05 06:18:23;;;;;;;9.68;4.70;;;;;;;2.05;100.00;99078.53;6132618;29;20086;-90
2021/12/05 06:21:26;;;;;;;9.20;4.93;;;;;;;1.97;100.00;99081.59;6117567;29;20045;-90
2021/12/05 06:24:28;;;;;;;10.73;4.90;;;;;;;1.94;100.00;99081.81;6119891;29;20040;-90
2021/12/05 06:27:30;;;;;;;11.98;4.75;;;;;;;2.01;100.00;99092.41;6120326;29;20074;-90
2021/12/05 06:46:40;;;;;;;10.95;3.97;;;;;;;2.25;100.00;99107.81;6105912;29;20056;-90
2021/12/05 06:49:43;;;;;;;8.48;3.90;;;;;;;2.12;100.00;99108.63;6116284;29;20039;-90
2021/12/05 06:53:07;;;;;;;16.15;4.82;;;;;;;1.98;100.00;99107.91;6113717;29;20046;-90
2021/12/05 06:56:09;;;;;;;11.75;3.85;;;;;;;1.94;100.00;99113.22;6118407;29;20125;-90
2021/12/05 06:59:12;;;;;;;11.82;3.97;;;;;;;1.96;100.00;99114.84;6147261;28;20054;-90
2021/12/05 07:02:16;;;;;;;8.57;3.20;;;;;;;1.77;100.00;99122.91;6152142;28;20055;-90
2021/12/05 07:08:42;;;;;;;10.68;3.13;;;;;;;1.59;100.00;99141.03;6122473;29;20059;-90
2021/12/05 07:12:19;;;;;;;11.15;4.03;;;;;;;1.55;100.00;99148.97;6124884;29;20528;-90
2021/12/05 07:15:33;;;;;;;9.13;3.45;;;;;;;1.63;100.00;99150.13;6120887;29;20063;-90
2021/12/05 07:18:44;;;;;;;8.40;3.25;;;;;;;1.66;100.00;99154.19;6120783;29;20134;-90
2021/12/05 07:21:52;;;;;;;8.63;3.20;;;;;;;1.73;100.00;99161.34;6120108;29;20134;-90
2021/12/05 07:25:08;;;;;;;9.13;3.60;;;;;;;1.77;100.00;99166.28;6123359;29;20119;-90
2021/12/05 07:41:58;;;;;;;;;;;;;;;2.00;100.00;99200.50;6120973;29;20047;-90
2021/12/05 07:45:03;;;;;;;8.88;3.08;;;;;;;1.91;100.00;99212.94;6120519;29;19930;-90
2021/12/05 07:48:16;;;;;;;7.10;2.67;;;;;;;1.92;100.00;99219.69;6120388;29;20071;-90
2021/12/05 07:51:25;;;;;;;10.45;3.00;;;;;;;1.96;100.00;99229.69;6122500;29;20043;-90
2021/12/05 07:54:52;;;;;;;8.90;3.10;;;;;;;2.03;100.00;99230.91;6119926;29;20062;-90
2021/12/05 07:58:09;;;;;;;13.68;3.55;;;;;;;2.15;100.00;99236.03;6119291;29;20039;-90
2021/12/05 08:14:40;;;;;;;;;;;;;;;2.59;100.00;99257.03;6121498;29;20080;-90
2021/12/05 08:17:51;;;;;;;11.35;4.55;;;;;;;2.64;100.00;99262.66;6121416;29;20368;-90
2021/12/05 08:20:54;;;;;;;7.95;3.80;;;;;;;2.68;100.00;99266.63;6119655;29;20047;-90
2021/12/05 08:23:56;;;;;;;11.77;3.72;;;;;;;2.70;100.00;99269.09;6124261;29;20142;-90
2021/12/05 08:26:59;;;;;;;8.07;4.10;;;;;;;2.71;100.00;99275.84;6117356;29;20405;-90
2021/12/05 08:30:09;;;;;;;9.93;4.00;;;;;;;2.72;100.00;99280.03;6119288;29;20401;-90
2021/12/05 08:33:15;;;;;;;12.63;3.08;;;;;;;2.75;100.00;99282.38;6120009;29;20047;-90
2021/12/05 08:46:20;;;;;;;7.20;2.42;;;;;;;2.85;100.00;99308.94;6115731;29;20066;-90
2021/12/05 10:09:28;;;;;;;6.75;2.47;;;;;;;4.79;100.00;99423.47;6119232;29;20044;-91
2021/12/05 10:36:38;;;;;;;7.57;2.10;;;;;;;5.30;100.00;99441.09;6127028;29;20051;-92
2021/12/05 10:39:41;;;;;;;6.00;1.70;;;;;;;5.40;100.00;99436.91;6128896;29;20047;-92
2021/12/05 10:42:56;;;;;;;5.75;1.83;;;;;;;5.47;100.00;99440.66;6128517;29;20054;-91
2021/12/05 10:46:10;;;;;;;6.95;1.77;;;;;;;5.53;100.00;99452.22;6143535;28;20047;-92
2021/12/05 10:49:15;;;;;;;4.00;1.85;;;;;;;5.56;100.00;99446.84;6138010;29;20051;-91
2021/12/05 10:52:22;;;;;;;5.70;1.70;;;;;;;5.56;100.00;99447.66;6133244;29;20063;-92
2021/12/05 10:55:29;;;;;;;4.70;1.80;;;;;;;5.61;100.00;99439.59;6129620;29;20206;-92
2021/12/05 10:58:37;;;;;;;6.97;1.88;;;;;;;5.61;100.00;99447.31;6149960;28;20434;-92
2021/12/05 11:02:01;;;;;;;4.45;1.77;;;;;;;5.70;100.00;99445.81;6137574;29;20055;-92
2021/12/05 11:05:06;;;;;;;7.07;2.08;;;;;;;5.71;100.00;99448.22;6137277;29;20051;-92
2021/12/05 11:08:40;;;;;;;8.27;1.60;;;;;;;5.69;100.00;99449.28;6147890;29;20163;-92
2021/12/05 11:11:47;;;;;;;5.03;1.50;;;;;;;5.55;100.00;99445.22;6185174;28;20051;-92
2021/12/05 11:14:57;;;;;;;5.75;1.58;;;;;;;5.38;100.00;99447.28;6156863;28;20100;-93
2021/12/05 11:18:07;;;;;;;7.20;2.95;;;;;;;5.36;100.00;99453.47;6155044;28;20036;-92
2021/12/05 11:21:34;;;;;;;3.95;2.30;;;;;;;5.36;100.00;99459.41;6169604;28;20039;-92
2021/12/05 11:25:09;;;;;;;6.47;2.33;;;;;;;5.48;100.00;99462.00;6161420;28;20115;-92
2021/12/05 11:28:53;;;;;;;8.07;1.75;;;;;;;5.51;100.00;99456.63;6548111;23;20822;31
2021/12/05 11:32:07;;;;;;;4.75;2.03;;;;;;;5.51;100.00;99460.00;6304512;23;20098;-93
2021/12/05 11:35:49;;;;;;;8.00;1.75;;;;;;;5.48;100.00;99462.81;6217989;23;20030;31
2021/12/05 11:49:45;;;;;;;5.45;1.50;;;;;;;5.17;100.00;99466.84;6384127;23;20058;-93
2021/12/05 11:52:49;;;;;;;5.47;1.48;;;;;;;5.27;100.00;99461.88;6189016;28;20073;-93
2021/12/05 11:55:54;;;;;;;6.50;2.05;;;;;;;5.37;100.00;99466.19;6256198;23;20114;-93
2021/12/05 11:59:27;;;;;;;4.43;1.67;;;;;;;5.52;100.00;99468.56;6485293;23;20036;-93
2021/12/05 12:06:09;;;;;;;9.40;1.92;;;;;;;5.63;100.00;99468.53;6352637;23;20050;-93
2021/12/05 12:09:12;;;;;;;5.25;1.52;;;;;;;5.62;100.00;99472.06;6208373;28;20037;-93
2021/12/05 12:12:15;;;;;;;4.45;1.83;;;;;;;5.55;100.00;99478.59;6220956;28;20053;-93
2021/12/05 12:19:12;;;;;;;6.35;1.45;;;;;;;5.46;100.00;99477.50;7403034;23;20029;31
2021/12/05 12:22:19;;;;;;;6.40;1.35;;;;;;;5.48;100.00;99473.06;6179848;28;20047;-93
2021/12/05 12:25:25;;;;;;;2.83;1.30;;;;;;;5.47;100.00;99473.22;6194502;28;20019;-93
2021/12/05 12:28:28;;;;;;;4.38;1.65;;;;;;;5.55;100.00;99473.44;6175420;28;20633;-92
2021/12/05 12:31:36;;;;;;;6.47;1.80;;;;;;;5.55;100.00;99473.44;6432455;23;20033;31
2021/12/05 12:34:40;;;;;;;8.55;1.55;;;;;;;5.45;100.00;99477.63;6603726;23;20565;-95
2021/12/05 12:37:57;;;;;;;3.50;1.40;;;;;;;5.45;100.00;99478.44;6991436;23;20038;-93
2021/12/05 12:41:02;;;;;;;4.95;1.35;;;;;;;5.50;100.00;99485.81;7363640;23;20038;31
2021/12/05 12:44:07;;;;;;;3.28;1.35;;;;;;;5.60;100.00;99490.13;6096689;29;20048;-93
2021/12/05 12:47:09;;;;;;;4.82;1.65;;;;;;;5.70;100.00;99482.56;6091415;29;20040;-93
2021/12/05 12:50:34;;;;;;;3.08;1.35;;;;;;;5.78;100.00;99489.69;6087801;29;20056;-93
2021/12/05 12:53:42;;;;;;;8.23;1.20;;;;;;;5.85;100.00;99484.91;6080815;29;20037;-92
2021/12/05 12:57:12;;;;;;;4.93;1.27;;;;;;;5.91;98.79;99492.13;6065130;29;20176;-92
2021/12/05 13:00:16;;;;;;;4.75;1.20;;;;;;;5.88;96.83;99495.75;6082665;29;20201;-92
2021/12/05 13:03:28;;;;;;;6.10;1.33;;;;;;;5.85;96.37;99500.31;6069160;29;20112;-93
2021/12/05 13:13:20;;;;;;;4.65;1.20;;;;;;;5.76;97.13;99497.50;6098927;29;20035;-94
2021/12/05 13:16:28;;;;;;;5.13;1.20;;;;;;;5.70;96.74;99500.53;6087429;29;20081;-93
2021/12/05 13:19:37;;;;;;;5.35;1.10;;;;;;;5.64;96.85;99503.56;6072213;29;20121;-93
2021/12/05 13:23:13;;;;;;;4.65;1.40;;;;;;;5.63;98.15;99507.06;6084085;29;20529;-93
2021/12/05 13:26:43;;;;;;;5.57;1.75;;;;;;;5.57;98.01;99507.53;6096871;29;20051;-93
2021/12/05 13:29:54;;;;;;;5.00;1.13;;;;;;;5.50;98.94;99516.59;6086577;29;20385;-93
2021/12/05 13:33:22;;;;;;;5.93;1.77;;;;;;;5.47;98.17;99516.84;6091207;29;20064;-93
2021/12/05 13:36:35;;;;;;;5.28;1.23;;;;;;;5.41;99.39;99512.97;6096100;29;20100;-93
2021/12/05 13:39:56;;;;;;;3.00;1.10;;;;;;;5.38;99.56;99518.31;6107056;29;20056;-94
2021/12/05 13:43:08;;;;;;;2.53;1.30;;;;;;;5.42;98.73;99530.00;6106555;29;20048;-93
2021/12/05 13:46:32;;;;;;;4.95;1.42;;;;;;;5.45;98.42;99531.53;6090997;29;20045;-93
2021/12/05 13:49:38;;;;;;;6.35;1.60;;;;;;;5.34;99.03;99538.28;6077553;29;20052;-93
2021/12/05 13:52:41;;;;;;;5.53;1.75;;;;;;;5.29;99.71;99542.06;6095330;29;20055;-93
2021/12/05 13:59:14;;;;;;;4.67;1.47;;;;;;;5.12;98.05;99549.28;6081815;29;20068;-93
2021/12/05 14:02:17;;;;;;;7.13;1.90;;;;;;;5.03;100.00;99556.81;6082295;29;20056;-93
2021/12/05 14:05:30;;;;;;;4.55;2.05;;;;;;;4.97;100.00;99561.44;6089605;29;20485;-93
2021/12/05 14:08:32;;;;;;;7.07;2.40;;;;;;;4.96;100.00;99564.09;6079770;29;20045;-93
2021/12/05 14:11:37;;;;;;;5.30;2.03;;;;;;;4.96;100.00;99562.34;6081040;29;20040;-93
2021/12/05 14:15:00;;;;;;;5.47;2.03;;;;;;;4.96;100.00;99564.91;6076112;29;20049;-93
2021/12/05 14:18:03;;;;;;;8.25;3.60;;;;;;;4.82;100.00;99567.66;6063419;29;20048;-93
2021/12/05 14:21:19;;;;;;;7.47;2.22;;;;;;;4.73;100.00;99576.81;6095499;29;20053;-93
2021/12/05 14:24:25;;;;;;;5.00;2.28;;;;;;;4.67;100.00;99578.97;6078584;29;20045;-93
2021/12/05 14:27:31;;;;;;;4.50;1.70;;;;;;;4.62;100.00;99575.91;6077314;29;20085;-93
2021/12/05 14:30:35;;;;;;;4.43;1.50;;;;;;;4.55;100.00;99583.22;6070810;29;20063;-93
2021/12/05 14:33:53;;;;;;;4.70;1.73;;;;;;;4.44;100.00;99599.31;6081434;29;20060;-93
2021/12/05 14:37:04;;;;;;;7.20;2.60;;;;;;;4.22;100.00;99594.81;6094686;29;20036;-93
2021/12/05 14:40:18;;;;;;;6.85;2.25;;;;;;;4.05;100.00;99602.81;6075130;29;20051;-93
2021/12/05 14:43:21;;;;;;;4.65;2.10;;;;;;;3.89;100.00;99608.97;6071517;29;20048;-93
2021/12/05 14:46:24;;;;;;;7.47;1.73;;;;;;;3.73;100.00;99612.66;6088196;29;20044;-93
2021/12/05 14:49:49;;;;;;;3.50;1.67;;;;;;;3.56;100.00;99612.00;6066772;29;20048;-93
2021/12/05 14:52:55;;;;;;;5.25;1.90;;;;;;;3.38;100.00;99616.56;6093546;29;20048;-93
2021/12/05 14:56:03;;;;;;;4.18;1.52;;;;;;;3.14;100.00;99621.47;6092483;29;20080;-93
2021/12/05 14:59:14;;;;;;;4.45;1.58;;;;;;;2.90;100.00;99628.94;6081856;29;20084;-93
2021/12/05 15:02:19;;;;;;;5.93;2.42;;;;;;;2.70;100.00;99637.81;6059530;29;20041;-93
2021/12/05 15:05:21;;;;;;;7.57;2.88;;;;;;;2.57;100.00;99647.97;6075885;29;20130;-93
2021/12/05 15:08:29;;;;;;;5.50;3.35;;;;;;;2.48;100.00;99647.69;6087365;29;20053;-93
2021/12/05 15:11:33;;;;;;;6.10;3.45;;;;;;;2.47;100.00;99651.16;6070203;29;20044;-93
2021/12/05 15:14:40;;;;;;;11.15;4.72;;;;;;;2.43;100.00;99659.91;6059094;29;20073;-92
2021/12/05 15:17:44;;;;;;;7.43;4.40;;;;;;;2.38;100.00;99672.94;6095910;29;20093;-93
2021/12/05 15:20:47;;;;;;;7.40;4.30;;;;;;;2.27;100.00;99665.09;6074903;29;20145;-92
2021/12/05 15:23:49;;;;;;;11.52;5.38;;;;;;;2.16;100.00;99670.81;6073749;29;20052;-93
2021/12/05 15:26:52;;;;;;;17.67;7.78;;;;;;;2.03;100.00;99680.91;6088110;29;20100;-93
2021/12/05 15:29:58;;;;;;;17.90;8.80;;;;;;;1.93;100.00;99684.91;6079686;29;20041;-93
2021/12/05 15:33:24;;;;;;;12.10;7.35;;;;;;;1.85;100.00;99690.44;6086916;29;20052;-93
2021/12/05 15:36:34;;;;;;;18.30;8.65;;;;;;;1.82;100.00;99702.56;6093524;29;20063;-93
2021/12/05 15:39:46;;;;;;;16.88;7.68;;;;;;;1.79;100.00;99713.78;6073057;29;20056;-93
2021/12/05 15:42:49;;;;;;;16.52;8.38;;;;;;;1.84;100.00;99705.84;6057266;29;20059;-93
2021/12/05 15:45:55;;;;;;;17.17;9.40;;;;;;;1.88;100.00;99714.97;6083811;29;20068;-93
2021/12/05 15:49:00;;;;;;;13.15;7.85;;;;;;;1.89;100.00;99717.44;6091960;29;20044;-93
2021/12/05 15:52:05;;;;;;;9.68;7.10;;;;;;;1.85;100.00;99721.06;6085161;29;20056;-93
2021/12/05 15:55:38;;;;;;;;;;;;;;;;;;;;;
2021/12/05 15:59:02;;;;;;;11.35;6.68;;;;;;;1.67;100.00;99722.91;6079954;29;20029;-93
2021/12/05 16:02:13;;;;;;;11.25;6.40;;;;;;;1.60;100.00;99720.78;6092819;29;20065;-93
2021/12/05 16:05:23;;;;;;;10.55;5.95;;;;;;;1.51;100.00;99739.94;6084543;29;20041;-93
2021/12/05 16:08:32;;;;;;;14.95;7.35;;;;;;;1.50;100.00;99743.41;6081167;29;20048;-92
2021/12/05 16:11:48;;;;;;;11.02;6.50;;;;;;;1.47;100.00;99736.75;6077507;29;20115;-92
2021/12/05 16:14:56;;;;;;;11.05;7.20;;;;;;;1.44;100.00;99741.19;6068266;29;20058;-93
2021/12/05 16:18:01;;;;;;;16.55;9.02;;;;;;;1.33;100.00;99738.41;6085810;29;20135;-93
2021/12/05 16:21:14;;;;;;;13.43;7.65;;;;;;;1.27;100.00;99757.41;6070165;29;20049;-93
2021/12/05 16:24:20;;;;;;;20.48;10.55;;;;;;;1.18;100.00;99757.88;6069375;29;20128;-93
2021/12/05 16:27:24;;;;;;;31.30;14.65;;;;;;;1.16;100.00;99760.50;6081646;29;20216;-92
2021/12/05 16:30:30;;;;;;;21.88;10.73;;;;;;;1.21;100.00;99767.91;6072173;29;20040;-92
2021/12/05 16:33:34;;;;;;;22.85;10.55;;;;;;;1.28;100.00;99766.69;6055096;29;20048;-93
2021/12/05 16:37:08;;;;;;;17.13;8.30;;;;;;;1.36;100.00;99766.28;6078688;29;20040;-93
2021/12/05 16:40:14;;;;;;;16.33;8.30;;;;;;;1.40;100.00;99776.22;6055618;29;20057;-92
2021/12/05 16:43:17;;;;;;;12.70;7.60;;;;;;;1.39;100.00;99776.31;6077000;29;20055;-92
2021/12/05 16:46:57;;;;;;;14.18;7.45;;;;;;;1.29;100.00;99784.47;6064032;29;20041;-93
2021/12/05 16:50:03;;;;;;;13.88;7.80;;;;;;;1.21;100.00;99785.75;6020330;29;20046;-93
2021/12/05 16:53:07;;;;;;;11.27;6.60;;;;;;;1.14;100.00;99784.41;6057038;29;20033;-93
2021/12/05 16:56:11;;;;;;;12.10;6.88;;;;;;;1.05;100.00;99789.09;6063240;29;20060;-93
2021/12/05 16:59:18;;;;;;;10.90;6.53;;;;;;;1.01;100.00;99800.34;6059923;29;20747;-93
2021/12/05 17:02:32;;;;;;;10.88;6.07;;;;;;;0.94;100.00;99806.66;6040226;29;20049;-92
2021/12/05 17:05:48;;;;;;;10.93;5.90;;;;;;;0.93;100.00;99799.91;6054063;29;20139;-92
2021/12/05 17:09:10;;;;;;;15.30;7.63;;;;;;;1.06;100.00;99800.09;6055052;29;20425;-93
2021/12/05 17:12:34;;;;;;;10.07;6.20;;;;;;;1.12;100.00;99802.34;6071841;29;20040;-92
2021/12/05 17:15:44;;;;;;;11.18;5.22;;;;;;;1.13;100.00;99804.00;6070091;29;20047;-92
2021/12/05 17:18:55;;;;;;;6.53;4.85;;;;;;;1.15;100.00;99817.50;6060113;29;20044;-93
2021/12/05 17:21:58;;;;;;;8.30;4.80;;;;;;;1.19;100.00;99820.69;6067860;29;20057;-93
2021/12/05 17:25:01;;;;;;;10.57;5.90;;;;;;;1.24;100.00;99822.13;6131374;23;21169;-93
2021/12/05 17:28:08;;;;;;;8.30;5.38;;;;;;;1.34;100.00;99821.63;6163441;28;20042;-93
2021/12/05 17:31:12;;;;;;;12.82;5.80;;;;;;;1.40;100.00;99822.13;6183738;28;20034;-93
2021/12/05 17:34:29;;;;;;;14.20;7.78;;;;;;;1.45;100.00;99832.91;6199158;28;20042;-93
2021/12/05 17:37:32;;;;;;;11.45;7.05;;;;;;;1.50;100.00;99832.69;6197655;28;20036;-93
2021/12/05 17:40:54;;;;;;;10.77;6.43;;;;;;;1.56;100.00;99839.16;6198256;28;20114;-93
2021/12/05 17:43:59;;;;;;;11.55;5.97;;;;;;;1.53;100.00;99841.88;6197132;28;20042;-93
2021/12/05 17:47:06;;;;;;;7.07;4.03;;;;;;;1.53;100.00;99850.34;6193204;28;20065;-93
2021/12/05 17:50:13;;;;;;;7.15;4.40;;;;;;;1.59;100.00;99846.66;6207473;28;20046;-93
2021/12/05 17:53:15;;;;;;;6.15;4.07;;;;;;;1.65;100.00;99846.34;6194802;28;20047;-92
2021/12/05 17:56:36;;;;;;;8.95;4.30;;;;;;;1.71;100.00;99861.31;6211094;28;20046;-93
2021/12/05 18:03:00;;;;;;;7.45;5.30;;;;;;;1.84;100.00;99869.13;6198361;28;20306;-93
2021/12/05 18:06:02;;;;;;;8.52;5.30;;;;;;;1.87;100.00;99872.38;6197003;28;20042;-93
2021/12/05 18:09:05;;;;;;;12.25;5.78;;;;;;;1.89;100.00;99878.22;6182601;28;20050;-93
2021/12/05 18:12:23;;;;;;;13.05;6.15;;;;;;;1.88;100.00;99875.72;6197487;28;20051;-93
2021/12/05 18:15:33;;;;;;;11.35;5.00;;;;;;;1.89;100.00;99878.22;6187591;28;20043;-93
2021/12/05 18:18:35;;;;;;;9.95;5.65;;;;;;;1.86;100.00;99880.09;6196375;28;20042;-93
2021/12/05 18:21:39;;;;;;;11.23;6.28;;;;;;;1.85;100.00;99881.00;6194856;28;20050;-93
2021/12/05 18:24:43;;;;;;;11.77;7.05;;;;;;;1.81;100.00;99880.31;6190196;28;20047;-92
2021/12/05 18:27:47;;;;;;;9.65;5.57;;;;;;;1.81;100.00;99885.44;6195202;28;20043;-93
2021/12/05 18:30:50;;;;;;;13.80;5.55;;;;;;;1.81;100.00;99897.38;6196482;28;20066;-93
2021/12/05 18:34:15;;;;;;;9.30;6.35;;;;;;;1.79;100.00;99909.38;6195655;28;20074;-93
2021/12/05 18:37:17;;;;;;;20.05;10.55;;;;;;;1.81;100.00;99903.28;6190583;28;20043;-93
2021/12/05 18:40:19;;;;;;;9.05;5.05;;;;;;;1.79;100.00;99905.13;6188763;28;20023;-92
2021/12/05 18:43:28;;;;;;;7.70;5.28;;;;;;;1.77;100.00;99914.59;6186706;28;20075;-93
2021/12/05 18:46:34;;;;;;;10.05;5.15;;;;;;;1.76;100.00;99915.47;6191941;28;20103;-93
2021/12/05 18:49:36;;;;;;;10.45;6.50;;;;;;;1.78;100.00;99923.06;6200614;28;20043;-93
2021/12/05 18:52:40;;;;;;;13.55;7.63;;;;;;;1.80;100.00;99928.91;6194208;28;20031;-92
2021/12/05 18:55:42;;;;;;;15.98;9.35;;;;;;;1.81;100.00;99928.00;6185483;28;20047;-93
2021/12/05 18:58:44;;;;;;;16.23;10.43;;;;;;;1.86;100.00;99926.88;6204882;28;20023;-93
2021/12/05 19:05:10;;;;;;;22.38;12.38;;;;;;;1.92;100.00;99933.38;6182827;28;20050;-93
2021/12/05 19:14:40;;;;;;;14.02;10.38;;;;;;;2.09;100.00;99953.72;6178548;28;20058;-92
2021/12/05 19:17:46;;;;;;;16.83;11.02;;;;;;;2.11;100.00;99961.28;6198478;28;20047;-93
2021/12/05 19:20:48;;;;;;;20.92;13.10;;;;;;;2.19;100.00;99959.16;6206084;28;20061;-93
2021/12/05 19:27:29;;;;;;;17.85;10.95;;;;;;;2.10;100.00;99964.75;7240444;23;20052;-93
2021/12/05 19:30:37;;;;;;;17.70;10.15;;;;;;;2.08;100.00;99956.34;6134027;29;20111;-93
2021/12/05 19:33:39;;;;;;;18.63;10.02;;;;;;;2.07;100.00;99964.91;6127466;29;20063;-93
2021/12/05 19:36:42;;;;;;;19.40;10.80;;;;;;;2.08;100.00;99971.66;6132159;29;20115;-93
2021/12/05 19:39:44;;;;;;;23.67;10.38;;;;;;;2.18;100.00;99983.03;6131985;29;20075;-93
2021/12/05 19:42:50;;;;;;;21.05;11.02;;;;;;;2.21;100.00;99989.69;6136607;29;20142;-93
2021/12/05 19:45:57;;;;;;;20.23;11.07;;;;;;;2.29;100.00;99998.63;6144174;29;20051;-94
2021/12/05 19:49:00;;;;;;;24.42;12.00;;;;;;;2.35;100.00;99995.72;6156587;28;20107;-93
2021/12/05 19:52:05;;;;;;;27.48;13.35;;;;;;;2.29;100.00;99997.81;6138113;29;20040;-93
2021/12/05 19:55:09;;;;;;;22.35;12.35;;;;;;;2.30;100.00;100007.09;6144407;29;20733;-93
2021/12/05 19:58:11;;;;;;;26.02;11.68;;;;;;;2.29;100.00;100013.13;6122381;29;20048;-93
2021/12/05 20:01:13;;;;;;;21.65;11.85;;;;;;;2.31;100.00;100014.69;6145005;29;20048;-93
2021/12/05 20:04:16;;;;;;;21.90;11.43;;;;;;;2.41;100.00;100014.19;6127377;29;20387;-93
2021/12/05 20:07:25;;;;;;;22.00;11.32;;;;;;;2.43;100.00;100030.25;6140219;29;20036;-93
2021/12/05 20:10:32;;;;;;;24.75;12.07;;;;;;;2.43;100.00;100035.34;6147163;29;20048;-93
2021/12/05 20:13:36;;;;;;;23.17;12.15;;;;;;;2.47;100.00;100035.13;6139405;29;20039;-93
2021/12/05 20:16:46;;;;;;;30.30;12.48;;;;;;;2.44;100.00;100045.50;6114020;29;20127;-93
2021/12/05 20:19:56;;;;;;;31.83;13.07;;;;;;;2.45;100.00;100046.31;6264682;23;20070;-93
2021/12/05 20:26:37;;;;;;;33.03;14.07;;;;;;;2.43;100.00;100055.78;6368177;23;20056;-93
2021/12/05 20:29:40;;;;;;;31.15;15.70;;;;;;;2.45;100.00;100056.53;6169058;28;20380;-94
2021/12/05 20:32:44;;;;;;;31.48;13.90;;;;;;;2.46;100.00;100063.28;6168109;29;20087;-93
2021/12/05 20:35:46;;;;;;;33.25;15.02;;;;;;;2.49;100.00;100068.25;6147213;29;20071;-93
2021/12/05 20:39:05;;;;;;;32.63;15.55;;;;;;;2.46;100.00;100069.25;6154242;29;20043;-93
2021/12/05 20:42:07;;;;;;;34.65;14.38;;;;;;;2.47;100.00;100067.50;6164650;29;20043;-93
2021/12/05 20:45:14;;;;;;;39.38;15.82;;;;;;;2.50;100.00;100075.81;6170180;29;20045;-93
2021/12/05 20:48:16;;;;;;;34.10;14.88;;;;;;;2.52;100.00;100083.41;6165189;29;20063;-94
2021/12/05 20:51:22;;;;;;;36.28;15.70;;;;;;;2.52;100.00;100085.97;6167079;29;20067;-94
2021/12/05 20:54:31;;;;;;;36.00;15.52;;;;;;;2.53;100.00;100087.59;6138402;28;20057;-93
2021/12/05 20:57:33;;;;;;;47.22;16.00;;;;;;;2.59;100.00;100102.63;6142616;29;20051;-93
2021/12/05 21:00:41;;;;;;;34.92;15.38;;;;;;;2.57;100.00;100096.78;6147716;29;20047;-93
2021/12/05 21:03:43;;;;;;;38.83;15.82;;;;;;;2.57;100.00;100101.88;6145365;29;20386;-93
2021/12/05 21:06:46;;;;;;;40.80;17.63;;;;;;;2.54;100.00;100097.75;6130843;29;20051;-93
2021/12/05 21:10:03;;;;;;;36.10;15.82;;;;;;;2.58;100.00;100095.84;6165571;29;20058;-93
2021/12/05 21:13:07;;;;;;;34.10;14.20;;;;;;;2.57;100.00;100101.88;6162280;28;20038;-93